North York, Canada
Current Conditions -  °F | °C
As of 7:00 AM on Thursday 23 Oct 2014 (Local Time) from CYKZ Reporting Station
Few Clouds Few Clouds  
Wind Chill: 40°   Ceiling: Unl
Heat Index: 43°   Visibility: 15mi
Dew Point: 39°   Wind: 5mph
Humidity: 87%   Direction: 330°NNW
Pressure: 30.18"   Gusts: NA
Location:  43.77°N, 79.41°W
Report Text: CYKZ 231100Z 33004KT 15SM FEW080 06/04 A3018 RMK AC1 AC TRSLP224
Loading
Personal Weather Stations






























Interactive Weather Map
Tropical Storm Tracking
New forecast layout! Learn more

10-Day Weather Forecast

Advertisements
Track Severe Weather on mobile